Detall de PIREP

Printer-friendly versionPDF version

[2013/03/29 16:52:00]
Flight IATA:CT1004
Pilot Number:044
Company ICAO:CAT
Aircraft Type:AT72/F
PAX:45
Departing Airport: LEGE
Destination Airport: LEGR
Alternate Airport:LEAM
Online: VATSIM
Route:MAMUK B31 BCN B28 VIBAS
Flight Level:F190
No Slew and time accel
No pause
Crash detect
Detect pilot in Cockpit between each 30 and 45 minutes
16:52 Zero fuel Weight: 39664 Lbs, Fuel Weight: 4316 Lbs
16:52 VATSIM:LEGE 291630Z 27008KT 210V340 9999 SCT034 BKN060 18/09 Q1004
16:52 VATSIM:LEGR 291630Z 33003KT 290V010 9999 SCT045 SCT070 15/09 Q1017
16:52 VOICE CATALONIAN / EASTER CHARTER
16:53 Parking Brakes off
17:00 Take-off
17:00 Take off Weight: 43910 Lbs
17:00 Wind: 240º @ 008 Knots Heading: 196º
17:00 POS N41º 54´ 10´´ E002º 45´ 41´´
17:00 Flaps:1 at 139 Knots
17:00 Gear Up: 138 Knots
17:00 Flaps:0 at 130 Knots
17:11 TOC
17:11 Fuel Weight: 3858 Lb
17:15 Wind:249º@018 Knots Heading: 157º Ground Speed: 281 Knots Altitude 18750 ft
17:30 Wind:252º@027 Knots Heading: 237º Ground Speed: 257 Knots Altitude 18776 ft
17:45 Wind:239º@034 Knots Heading: 227º Ground Speed: 251 Knots Altitude 18815 ft
18:00 Wind:240º@049 Knots Heading: 266º Ground Speed: 240 Knots Altitude 18838 ft
18:15 Wind:249º@044 Knots Heading: 234º Ground Speed: 241 Knots Altitude 18953 ft
18:30 Wind:242º@031 Knots Heading: 226º Ground Speed: 251 Knots Altitude 18973 ft
18:35 TOD
18:35 Fuel Weight: 1465 Lb
18:45 Wind:325º@006 Knots Heading: 232º Ground Speed: 237 Knots Altitude 9120 ft
18:55 Flaps:1 at 142 Knots
18:58 Flaps:2 at 118 Knots
18:59 Gear Down: 148 Knots
19:00 Wind:319º@003 Knots Heading: 088º Ground Speed: 126 Knots Altitude 5190 ft
19:05 TouchDown:Rate -236 ft/min Speed: 92 Knots
19:05 VATSIM:LEGR 291900Z VRB01KT 9999 SCT030 SCT050 14/10 Q1017
19:05 Land
19:05 Wind:353º@003 Knots
19:05 Heading: 084º
19:05 Flight Duration: 02:05
19:05 Landing Weight: 40762 Lbs
19:05 POS N37º 11´ 19´´ W003º 46´ 22´´
19:10 Parking brakes on
19:10 Block to Block Duration: 02:17
19:10 Final Fuel: 1062 Lbls
19:10 Spent Fuel: 3253 Lbls
19:10 Flight Length: 476 NM
19:10 TOD Land Length: 93 NM

Exportar CSV

Powered by Drupal - Modified by Danger4k